Time;durP1;ratioP1;P1;durP2;ratioP2;P2;SDS_P1;SDS_P2;PMS_P1;PMS_P2;Temp;Humidity;BMP_temperature;BMP_pressure;BME280_temperature;BME280_humidity;BME280_pressure;Samples;Min_cycle;Max_cycle;Signal;HPM_P1;HPM_P2
2021/07/28 00:00:15;;;;;;;7.97;7.18;;;;;;;16.48;87.06;101015.53;5115106;28;20351;-36
2021/07/28 00:02:40;;;;;;;;;;;;;;;16.66;85.09;101018.91;5115453;28;20027;-36
2021/07/28 00:05:06;;;;;;;7.90;7.10;;;;;;;16.48;87.27;101003.78;5114385;28;19904;-36
2021/07/28 00:07:32;;;;;;;10.05;8.10;;;;;;;16.43;87.61;101001.88;5114726;28;20293;-36
2021/07/28 00:09:57;;;;;;;11.90;7.83;;;;;;;16.23;87.49;100991.66;5115031;28;20100;-36
2021/07/28 00:12:22;;;;;;;9.50;7.22;;;;;;;16.35;88.34;101004.31;5115580;28;20368;-36
2021/07/28 00:14:48;;;;;;;;;;;;;;;16.49;86.44;101002.69;5114989;28;20363;-36
2021/07/28 00:17:14;;;;;;;9.52;8.45;;;;;;;16.31;88.06;101009.47;5114346;28;20341;-36
2021/07/28 00:20:16;;;;;;;;;;;;;;;16.44;86.80;100997.22;5115346;27;20023;-36
2021/07/28 00:25:21;;;;;;;9.18;8.18;;;;;;;16.20;88.69;100992.22;5114597;28;20437;-36
2021/07/28 00:27:46;;;;;;;9.48;8.48;;;;;;;16.22;88.63;100990.03;5114236;28;20053;-36
2021/07/28 00:30:12;;;;;;;;;;;;;;;16.32;87.46;100994.72;5115624;28;20030;-36
2021/07/28 00:32:37;;;;;;;10.45;8.23;;;;;;;16.25;89.12;100993.31;5114292;28;19907;-36
2021/07/28 00:35:02;;;;;;;;;;;;;;;16.32;87.22;100985.72;5115117;28;20031;-36
2021/07/28 00:37:28;;;;;;;12.55;7.80;;;;;;;16.20;88.71;100986.75;5114277;28;20255;-36
2021/07/28 00:39:53;;;;;;;;;;;;;;;16.33;87.09;100987.34;5114725;28;20028;-36
2021/07/28 00:42:18;;;;;;;9.30;7.85;;;;;;;16.22;88.38;100989.22;5114225;28;19907;-36
2021/07/28 00:44:44;;;;;;;;;;;;;;;16.31;86.79;100981.34;5114927;28;20023;-36
2021/07/28 00:47:11;;;;;;;10.95;8.18;;;;;;;16.07;88.45;100970.88;5113872;28;19907;-36
2021/07/28 00:49:37;;;;;;;10.45;8.35;;;;;;;16.05;88.81;100975.75;5114426;28;20105;-36
2021/07/28 00:52:05;;;;;;;9.82;7.68;;;;;;;15.98;88.95;100950.63;5114046;28;20129;-36
2021/07/28 00:54:31;;;;;;;10.60;7.57;;;;;;;16.05;89.09;100969.47;5113887;28;20116;-36
2021/07/28 00:56:57;;;;;;;;;;;;;;;16.21;87.72;100966.56;5115247;28;20091;-36
2021/07/28 00:59:23;;;;;;;12.02;7.38;;;;;;;16.03;88.41;100963.47;5113918;28;20381;-36
2021/07/28 01:01:49;;;;;;;;;;;;;;;16.24;86.90;100962.47;5114073;28;20031;-36
2021/07/28 01:04:14;;;;;;;10.00;7.53;;;;;;;16.14;88.20;100952.34;5112433;28;20300;-36
2021/07/28 01:06:39;;;;;;;;;;;;;;;16.28;86.79;100960.03;5113942;28;20099;-36
2021/07/28 01:09:05;;;;;;;7.83;6.93;;;;;;;16.15;88.46;100954.00;5113525;28;19919;-36
2021/07/28 01:11:30;;;;;;;9.20;7.47;;;;;;;16.09;88.75;100954.22;5113942;28;20301;-36
2021/07/28 01:13:56;;;;;;;8.55;7.00;;;;;;;16.06;88.83;100952.03;5113706;28;20301;-36
2021/07/28 01:16:26;;;;;;;11.00;6.78;;;;;;;15.98;89.18;100950.63;5113915;28;20102;-36
2021/07/28 01:18:52;;;;;;;9.85;7.95;;;;;;;15.99;88.74;100957.72;5113605;28;20027;-36
2021/07/28 01:21:20;;;;;;;7.90;7.07;;;;;;;16.01;88.76;100944.66;5114161;28;20019;-36
2021/07/28 01:23:47;;;;;;;9.60;6.88;;;;;;;15.97;88.59;100940.81;5112463;28;20427;-36
2021/07/28 01:26:13;;;;;;;9.45;7.80;;;;;;;15.94;89.11;100944.06;5113729;28;20416;-36
2021/07/28 01:28:39;;;;;;;10.70;7.68;;;;;;;16.05;88.75;100939.47;5113063;28;20354;-36
2021/07/28 01:31:12;;;;;;;9.38;7.38;;;;;;;15.97;88.48;100943.53;5113527;28;20020;-36
2021/07/28 01:33:46;;;;;;;8.85;7.25;;;;;;;16.00;89.13;100947.63;5113522;28;20024;-36
2021/07/28 01:36:15;;;;;;;8.73;7.80;;;;;;;16.00;89.21;100947.63;5113938;28;20034;-36
2021/07/28 01:38:40;;;;;;;8.95;7.28;;;;;;;16.03;88.98;100956.09;5113068;28;20031;-36
2021/07/28 01:41:07;;;;;;;9.40;7.40;;;;;;;15.96;89.48;100928.25;5113423;28;20440;-36
2021/07/28 01:43:33;;;;;;;9.48;7.00;;;;;;;15.93;89.54;100940.50;5113624;28;20036;-36
2021/07/28 01:45:59;;;;;;;9.10;8.07;;;;;;;15.89;89.36;100941.28;5113641;28;20043;-36
2021/07/28 01:48:25;;;;;;;;;;;;;;;16.05;88.16;100940.28;5113423;28;20084;-36
2021/07/28 01:50:51;;;;;;;10.63;7.65;;;;;;;15.92;89.75;100948.97;5113821;28;19964;-36
2021/07/28 01:53:17;;;;;;;9.55;7.88;;;;;;;15.84;89.42;100927.63;5113284;28;20367;-36
2021/07/28 01:55:43;;;;;;;;;;;;;;;16.03;88.38;100939.75;5114239;28;20088;-36
2021/07/28 01:58:09;;;;;;;10.82;7.68;;;;;;;15.93;88.76;100937.78;5113444;28;19911;-36
2021/07/28 02:00:34;;;;;;;9.57;6.95;;;;;;;15.88;89.41;100942.38;5113535;28;20035;-36
2021/07/28 02:03:03;;;;;;;9.65;7.07;;;;;;;15.85;89.80;100930.09;5112947;28;20020;-36
2021/07/28 02:05:33;;;;;;;9.50;7.57;;;;;;;15.78;89.02;100934.97;5113151;28;20034;-36
2021/07/28 02:08:04;;;;;;;9.40;7.05;;;;;;;15.84;89.27;100927.63;5113711;28;20200;-36
2021/07/28 02:10:34;;;;;;;9.77;7.57;;;;;;;15.84;89.54;100935.81;5113246;28;20035;-36
2021/07/28 02:13:01;;;;;;;10.40;7.15;;;;;;;15.84;89.92;100935.81;5113972;28;20028;-36
2021/07/28 02:15:27;;;;;;;9.50;7.72;;;;;;;15.83;89.71;100937.72;5113154;28;20019;-36
2021/07/28 02:17:53;;;;;;;;;;;;;;;15.94;88.38;100939.41;5113347;28;20293;-36
2021/07/28 02:20:18;;;;;;;9.90;7.95;;;;;;;15.74;90.11;100922.94;5113409;28;19911;-36
2021/07/28 02:22:45;;;;;;;;;;;;;;;15.88;89.26;100935.03;5113517;28;20031;-36
2021/07/28 02:25:11;;;;;;;10.63;7.13;;;;;;;15.74;90.01;100927.56;5113406;28;19903;-36
2021/07/28 02:27:36;;;;;;;;;;;;;;;15.85;88.86;100929.28;5113487;28;20419;-36
2021/07/28 02:30:03;;;;;;;8.80;7.43;;;;;;;15.67;89.67;100912.28;5113031;28;19908;-36
2021/07/28 02:32:29;;;;;;;9.45;8.23;;;;;;;15.48;89.85;100891.13;5113156;28;20352;-36
2021/07/28 02:34:54;;;;;;;10.68;7.85;;;;;;;15.74;90.09;100917.50;5113641;28;20181;-36
2021/07/28 02:37:20;;;;;;;9.27;7.83;;;;;;;15.70;90.35;100921.81;5113309;28;20028;-36
2021/07/28 02:39:45;;;;;;;15.43;7.20;;;;;;;15.68;89.89;100916.63;5116287;28;20277;-36
2021/07/28 02:42:10;;;;;;;11.83;8.20;;;;;;;15.63;90.43;100899.41;5116677;28;20245;-36
2021/07/28 02:44:35;;;;;;;;;;;;;;;15.80;89.26;100912.88;5117701;27;20019;-36
2021/07/28 02:47:01;;;;;;;9.83;7.80;;;;;;;15.66;90.42;100916.09;5116689;28;19968;-36
2021/07/28 02:49:26;;;;;;;;;;;;;;;15.77;89.00;100927.06;5117731;28;20084;-36
2021/07/28 02:51:51;;;;;;;9.40;7.60;;;;;;;15.58;90.66;100913.00;5116603;27;19907;-36
2021/07/28 02:54:21;;;;;;;10.32;8.38;;;;;;;15.63;90.50;100923.94;5116458;28;20447;-36
2021/07/28 02:56:46;;;;;;;9.85;8.85;;;;;;;15.60;90.64;100916.28;5116535;28;20448;-36
2021/07/28 02:59:11;;;;;;;11.50;9.17;;;;;;;15.55;91.00;100910.78;5116593;28;20119;-36
2021/07/28 03:01:37;;;;;;;11.40;9.93;;;;;;;15.57;90.94;100914.09;5116564;28;20245;-36
2021/07/28 03:04:02;;;;;;;16.15;10.15;;;;;;;15.55;90.84;100924.41;5116211;28;20044;-36
2021/07/28 03:06:28;;;;;;;12.30;10.45;;;;;;;15.61;91.26;100916.00;5116362;28;20035;-36
2021/07/28 03:08:53;;;;;;;;;;;;;;;15.72;89.73;100913.41;5116494;28;20016;-36
2021/07/28 03:11:18;;;;;;;11.80;10.05;;;;;;;15.56;91.09;100905.06;5116328;28;19911;-36
2021/07/28 03:13:44;;;;;;;13.77;10.60;;;;;;;15.67;90.83;100923.19;5115520;28;20099;-36
2021/07/28 03:16:09;;;;;;;12.80;10.48;;;;;;;15.68;91.17;100924.81;5116134;28;20265;-36
2021/07/28 03:18:34;;;;;;;13.50;10.48;;;;;;;15.67;91.13;100925.91;5116224;28;20032;-36
2021/07/28 03:21:00;;;;;;;;;;;;;;;15.81;90.46;100928.16;5117115;28;20112;-36
2021/07/28 03:23:25;;;;;;;11.55;10.10;;;;;;;15.62;91.00;100914.94;5115588;28;19910;-36
2021/07/28 03:25:51;;;;;;;12.25;9.32;;;;;;;15.66;91.77;100929.72;5115637;28;20027;-36
2021/07/28 03:28:16;;;;;;;;;;;;;;;15.74;90.73;100917.50;5116689;28;20030;-36
2021/07/28 03:30:41;;;;;;;11.40;9.90;;;;;;;15.70;91.59;100919.91;5115779;28;20010;-36
2021/07/28 03:33:06;;;;;;;;;;;;;;;15.78;90.19;100924.06;5116374;28;20102;-36
2021/07/28 03:35:32;;;;;;;12.43;8.83;;;;;;;15.70;91.78;100919.09;5116155;28;19962;-36
2021/07/28 03:37:57;;;;;;;10.73;8.93;;;;;;;15.70;91.71;100917.19;5115422;28;20326;-36
2021/07/28 03:40:22;;;;;;;;;;;;;;;15.82;90.96;100933.34;5116127;28;20023;-36
2021/07/28 03:42:48;;;;;;;16.85;10.20;;;;;;;15.66;91.77;100915.25;5116133;28;19911;-36
2021/07/28 03:45:13;;;;;;;12.10;10.05;;;;;;;15.73;91.62;100929.47;5115796;28;20024;-36
2021/07/28 03:47:39;;;;;;;21.13;10.50;;;;;;;15.66;92.27;100920.69;5115363;28;20026;-36
2021/07/28 03:50:05;;;;;;;12.40;9.85;;;;;;;15.64;92.46;100911.97;5114786;28;20027;-36
2021/07/28 03:52:30;;;;;;;10.75;9.52;;;;;;;15.79;92.41;100925.69;5115499;28;20035;-36
2021/07/28 03:54:55;;;;;;;12.10;9.48;;;;;;;15.70;92.33;100911.72;5115583;28;20106;-36
2021/07/28 03:57:21;;;;;;;11.48;10.00;;;;;;;15.82;91.90;100933.34;5115294;28;20024;-36
2021/07/28 03:59:46;;;;;;;;;;;;;;;15.90;91.21;100932.84;5115654;28;20034;-36
2021/07/28 04:02:13;;;;;;;13.60;9.60;;;;;;;15.87;91.98;100918.94;5115507;28;19904;-36
2021/07/28 04:04:39;;;;;;;10.20;9.00;;;;;;;15.93;92.21;100924.16;5114835;28;20027;-36
2021/07/28 04:07:05;;;;;;;11.38;9.85;;;;;;;15.88;92.74;100926.84;5115706;28;20020;-37
2021/07/28 04:09:30;;;;;;;10.63;9.52;;;;;;;15.93;92.71;100917.88;5114397;28;20103;-36
2021/07/28 04:11:55;;;;;;;11.75;10.10;;;;;;;15.92;92.37;100918.97;5115585;28;20043;-36
2021/07/28 04:14:21;;;;;;;;;;;;;;;16.05;91.25;100914.91;5115508;28;20019;-36
2021/07/28 04:16:46;;;;;;;11.30;9.23;;;;;;;15.93;92.32;100896.06;5114982;28;20003;-36
2021/07/28 04:19:11;;;;;;;10.73;9.40;;;;;;;16.03;92.41;100904.28;5113511;28;20309;-36
2021/07/28 04:21:37;;;;;;;12.48;9.93;;;;;;;16.06;92.33;100913.84;5114687;28;20023;-36
2021/07/28 04:24:03;;;;;;;10.57;9.32;;;;;;;16.12;91.85;100910.06;5114387;27;20035;-37
2021/07/28 04:26:28;;;;;;;13.38;10.38;;;;;;;16.12;92.18;100905.41;5115133;28;20030;-36
2021/07/28 04:28:53;;;;;;;;;;;;;;;16.18;91.22;100903.53;5115291;28;20519;-36
2021/07/28 04:31:19;;;;;;;13.02;9.90;;;;;;;16.08;92.35;100908.94;5115224;28;19908;-36
2021/07/28 04:33:44;;;;;;;15.43;10.68;;;;;;;16.08;92.21;100912.50;5114310;28;20066;-36
2021/07/28 04:36:09;;;;;;;;;;;;;;;16.19;91.52;100913.34;5115257;28;20031;-36
2021/07/28 04:38:35;;;;;;;13.60;10.40;;;;;;;16.19;92.26;100916.06;5114486;28;19918;-36
2021/07/28 04:41:00;;;;;;;;;;;;;;;16.27;91.16;100914.75;5115411;28;20019;-36
2021/07/28 04:43:25;;;;;;;15.98;11.30;;;;;;;16.05;92.35;100891.19;5114640;28;19938;-36
2021/07/28 04:45:59;;;;;;;12.95;10.63;;;;;;;16.22;92.38;100907.38;5114965;28;20073;-36
2021/07/28 04:48:25;;;;;;;13.90;10.93;;;;;;;16.18;91.98;100895.34;5113938;28;20050;-36
2021/07/28 04:50:52;;;;;;;14.68;11.35;;;;;;;16.25;92.36;100914.19;5114877;28;20071;-36
2021/07/28 04:53:17;;;;;;;14.93;10.90;;;;;;;16.19;92.97;100905.16;5114232;27;20027;-36
2021/07/28 04:55:42;;;;;;;15.90;11.57;;;;;;;16.25;92.60;100914.19;5114052;28;20453;-36
2021/07/28 04:58:08;;;;;;;14.80;11.67;;;;;;;16.27;92.92;100912.84;5114191;28;20752;-36
2021/07/28 05:00:33;;;;;;;;;;;;;;;16.37;92.09;100914.78;5113989;28;20038;-36
2021/07/28 05:02:58;;;;;;;16.75;11.68;;;;;;;16.35;92.64;100906.06;5113586;28;20328;-36
2021/07/28 05:05:23;;;;;;;;;;;;;;;16.43;91.98;100902.78;5115281;27;20028;-36
2021/07/28 05:07:49;;;;;;;12.40;10.67;;;;;;;16.37;92.38;100914.78;5114522;28;20225;-36
2021/07/28 05:10:14;;;;;;;;;;;;;;;16.48;91.67;100916.44;5114294;28;20047;-36
2021/07/28 05:12:39;;;;;;;14.27;11.55;;;;;;;16.44;91.94;100915.34;5114970;28;20324;-36
2021/07/28 05:15:05;;;;;;;13.68;11.65;;;;;;;16.47;92.57;100914.81;5114699;28;20041;-36
2021/07/28 05:17:30;;;;;;;16.40;11.48;;;;;;;16.45;92.16;100900.63;5113749;28;20028;-36
2021/07/28 05:19:56;;;;;;;;;;;;;;;16.57;91.91;100914.03;5114305;28;20028;-36
2021/07/28 05:22:21;;;;;;;14.57;11.70;;;;;;;16.57;92.06;100914.03;5113724;28;19903;-36
2021/07/28 05:24:46;;;;;;;20.35;12.55;;;;;;;16.53;92.59;100912.91;5113918;28;20342;-36
2021/07/28 05:27:12;;;;;;;15.95;12.93;;;;;;;16.46;92.53;100905.00;5113780;28;20060;-36
2021/07/28 05:29:37;;;;;;;;;;;;;;;16.63;91.67;100921.94;5113961;28;20023;-36
2021/07/28 05:32:03;;;;;;;17.73;12.43;;;;;;;16.61;92.02;100915.94;5113604;28;19953;-36
2021/07/28 05:34:28;;;;;;;;;;;;;;;16.69;91.36;100918.16;5113910;28;20076;-36
2021/07/28 05:36:57;;;;;;;15.63;11.33;;;;;;;16.62;91.75;100906.66;5113257;28;19957;-36
2021/07/28 05:39:22;;;;;;;17.20;12.82;;;;;;;16.63;91.92;100919.22;5113145;28;20027;-36
2021/07/28 05:41:48;;;;;;;15.93;10.63;;;;;;;16.67;91.45;100920.31;5113942;28;20024;-36
2021/07/28 05:44:13;;;;;;;15.33;12.40;;;;;;;16.61;92.01;100905.03;5113488;28;20371;-36
2021/07/28 05:46:38;;;;;;;14.57;10.73;;;;;;;16.60;91.35;100892.47;5113213;28;20662;-36
2021/07/28 05:49:04;;;;;;;14.10;11.68;;;;;;;16.71;91.96;100912.44;5113049;28;20284;-36
2021/07/28 05:51:29;;;;;;;15.10;12.30;;;;;;;16.65;91.65;100908.06;5114064;28;20023;-36
2021/07/28 05:53:54;;;;;;;;;;;;;;;16.82;91.03;100919.56;5114192;28;20035;-36
2021/07/28 05:56:20;;;;;;;17.03;11.43;;;;;;;16.80;91.92;100916.31;5113548;28;19911;-36
2021/07/28 05:58:45;;;;;;;15.30;11.60;;;;;;;16.81;91.54;100920.66;5113295;28;20269;-36
2021/07/28 06:01:10;;;;;;;15.37;12.00;;;;;;;16.84;91.45;100919.31;5113074;28;20551;-36
2021/07/28 06:03:36;;;;;;;13.40;12.00;;;;;;;16.90;91.48;100918.22;5112820;28;20264;-36
2021/07/28 06:06:01;;;;;;;;;;;;;;;17.00;90.52;100918.22;5113538;28;20444;-36
2021/07/28 06:08:26;;;;;;;10.93;9.75;;;;;;;17.00;90.92;100920.97;5113704;28;19908;-36
2021/07/28 06:10:52;;;;;;;15.80;10.67;;;;;;;17.02;91.22;100926.97;5113394;28;20036;-36
2021/07/28 06:13:17;;;;;;;15.30;11.13;;;;;;;17.05;90.47;100920.16;5113758;28;20276;-36
2021/07/28 06:15:42;;;;;;;;;;;;;;;17.14;90.03;100929.44;5118060;28;20019;-36
2021/07/28 06:18:08;;;;;;;12.80;10.43;;;;;;;17.07;89.76;100923.41;5116748;28;19911;-35
2021/07/28 06:20:33;;;;;;;;;;;;;;;17.18;89.78;100925.09;5118294;28;20020;-36
2021/07/28 06:22:58;;;;;;;12.40;10.30;;;;;;;17.12;88.78;100924.25;5117038;28;20330;-36
2021/07/28 06:25:23;;;;;;;;;;;;;;;17.18;88.28;100927.81;5117625;28;20030;-36
2021/07/28 06:27:50;;;;;;;13.53;10.37;;;;;;;17.06;87.72;100921.78;5116848;28;19994;-36
2021/07/28 06:30:16;;;;;;;16.23;10.93;;;;;;;17.06;88.52;100928.06;5116433;28;20119;-36
2021/07/28 06:32:41;;;;;;;13.45;10.35;;;;;;;17.07;87.83;100935.16;5117014;28;20055;-36
2021/07/28 06:35:07;;;;;;;11.98;10.52;;;;;;;17.06;88.56;100941.72;5116752;28;20023;-36
2021/07/28 06:37:32;;;;;;;;;;;;;;;17.16;88.46;100941.72;5117069;28;20039;-36
2021/07/28 06:39:57;;;;;;;15.70;10.70;;;;;;;16.99;88.32;100905.69;5116752;28;19995;-36
2021/07/28 06:42:22;;;;;;;;;;;;;;;17.30;86.70;100935.72;5116989;28;20028;-36
2021/07/28 06:44:49;;;;;;;14.27;9.80;;;;;;;17.27;86.37;100931.63;5116611;28;20285;-36
2021/07/28 06:47:15;;;;;;;14.93;11.23;;;;;;;17.21;86.47;100911.66;5115374;28;20087;-36
2021/07/28 06:49:40;;;;;;;11.40;9.70;;;;;;;17.38;86.23;100927.81;5117234;27;20023;-36
2021/07/28 06:52:06;;;;;;;12.13;9.35;;;;;;;17.39;85.48;100936.81;5116453;28;20386;-36
2021/07/28 06:54:31;;;;;;;12.77;8.52;;;;;;;17.40;84.68;100938.47;5116030;28;20024;-36
2021/07/28 06:56:56;;;;;;;;;;;;;;;17.51;85.67;100940.91;5117032;28;20031;-36
2021/07/28 06:59:21;;;;;;;12.20;8.77;;;;;;;17.49;84.21;100943.09;5116466;28;19926;-36
2021/07/28 07:01:47;;;;;;;12.38;8.57;;;;;;;17.53;83.63;100937.91;5116399;28;20265;-36
2021/07/28 07:04:12;;;;;;;;;;;;;;;17.64;83.42;100934.06;5116600;28;20019;-36
2021/07/28 07:06:37;;;;;;;11.10;8.20;;;;;;;17.66;82.78;100934.59;5116681;28;19990;-36
2021/07/28 07:09:02;;;;;;;;;;;;;;;17.81;82.71;100936.50;5116245;28;20334;-36
2021/07/28 07:11:28;;;;;;;13.52;6.60;;;;;;;17.83;80.34;100922.56;5116640;27;19912;-36
2021/07/28 07:13:53;;;;;;;;;;;;;;;17.95;81.53;100929.38;5116548;28;20020;-36
2021/07/28 07:16:19;;;;;;;8.68;5.88;;;;;;;17.91;78.95;100911.03;5116346;28;19904;-36
2021/07/28 07:18:44;;;;;;;;;;;;;;;18.12;79.27;100929.06;5116886;28;20480;-36
2021/07/28 07:21:09;;;;;;;13.67;5.67;;;;;;;18.17;77.80;100926.28;5116299;28;19904;-36
2021/07/28 07:23:34;;;;;;;;;;;;;;;18.28;79.87;100924.31;5115993;28;20031;-36
2021/07/28 07:26:01;;;;;;;11.45;5.03;;;;;;;18.25;77.61;100931.19;5115507;28;19911;-36
2021/07/28 07:28:27;;;;;;;10.02;4.68;;;;;;;18.22;76.17;100929.00;5115303;28;20024;-36
2021/07/28 07:30:52;;;;;;;;;;;;;;;18.29;77.33;100928.69;5116877;28;20428;-36
2021/07/28 07:36:01;;;;;;;12.57;5.15;;;;;;;18.22;75.62;100933.66;5115740;28;20035;-36
2021/07/28 07:38:27;;;;;;;;;;;;;;;18.36;76.80;100936.63;5115868;28;20019;-36
2021/07/28 07:40:52;;;;;;;6.07;4.07;;;;;;;18.27;74.63;100936.38;5116289;28;20022;-36
2021/07/28 07:43:17;;;;;;;;;;;;;;;18.37;75.95;100941.81;5115920;28;20020;-36
2021/07/28 07:45:42;;;;;;;5.60;3.83;;;;;;;18.34;74.50;100936.06;5115900;28;19949;-36
2021/07/28 07:48:08;;;;;;;;;;;;;;;18.49;75.30;100941.47;5116085;28;20024;-36
2021/07/28 07:50:35;;;;;;;6.90;3.33;;;;;;;18.36;74.27;100914.72;5115540;28;20321;-36
2021/07/28 07:53:04;;;;;;;6.13;3.70;;;;;;;18.69;73.38;100944.16;5115083;28;20030;-36
2021/07/28 07:55:30;;;;;;;6.82;3.80;;;;;;;18.56;71.90;100917.34;5115374;28;20438;-36
2021/07/28 07:57:56;;;;;;;;;;;;;;;18.73;73.90;100934.25;5115465;28;20020;-36
2021/07/28 08:00:22;;;;;;;5.57;3.30;;;;;;;18.71;71.32;100933.72;5115079;28;20363;-36
2021/07/28 08:02:47;;;;;;;;;;;;;;;18.96;72.14;100937.41;5115705;28;20023;-36
2021/07/28 08:05:12;;;;;;;5.43;3.63;;;;;;;19.01;71.58;100940.91;5114694;28;19915;-36
2021/07/28 08:07:37;;;;;;;;;;;;;;;19.13;72.27;100937.84;5115803;28;20047;-36
2021/07/28 08:10:03;;;;;;;8.57;3.63;;;;;;;18.94;71.85;100928.66;5115257;28;20359;-36
2021/07/28 08:12:29;;;;;;;;;;;;;;;19.07;72.44;100930.72;5115922;28;20682;-36
2021/07/28 08:14:54;;;;;;;6.47;3.03;;;;;;;19.03;70.61;100936.00;5115709;28;19971;-36
2021/07/28 08:17:19;;;;;;;;;;;;;;;19.21;71.40;100922.69;5115584;28;20035;-36
2021/07/28 08:19:44;;;;;;;6.17;3.00;;;;;;;19.31;70.07;100925.34;5115433;28;19919;-36
2021/07/28 08:22:10;;;;;;;;;;;;;;;19.47;71.70;100924.13;5115328;28;20269;-36
2021/07/28 08:24:35;;;;;;;6.40;2.80;;;;;;;19.51;67.94;100927.88;5114928;28;19930;-36
2021/07/28 08:27:00;;;;;;;;;;;;;;;19.63;68.56;100924.81;5115735;28;20285;-36
2021/07/28 08:29:25;;;;;;;6.05;2.40;;;;;;;19.37;67.65;100928.84;5114867;27;20246;-36
2021/07/28 08:31:51;;;;;;;;;;;;;;;19.45;67.73;100928.25;5115425;28;20080;-36
2021/07/28 08:34:16;;;;;;;6.13;3.27;;;;;;;19.34;68.87;100927.50;5114587;28;19904;-36
2021/07/28 08:36:41;;;;;;;;;;;;;;;19.46;67.89;100940.84;5115208;28;20291;-36
2021/07/28 08:39:06;;;;;;;5.27;2.97;;;;;;;19.56;66.98;100930.59;5114824;28;20280;-36
2021/07/28 08:41:35;;;;;;;5.63;2.72;;;;;;;19.56;66.08;100913.31;5114499;28;20020;-36
2021/07/28 08:44:00;;;;;;;7.22;2.65;;;;;;;19.68;66.87;100919.28;5114348;28;20023;-35
2021/07/28 08:46:26;;;;;;;;;;;;;;;19.84;66.73;100925.41;5114806;28;20087;-35
2021/07/28 08:48:52;;;;;;;5.63;2.67;;;;;;;19.60;65.61;100930.03;5114247;28;20002;-36
2021/07/28 08:51:18;;;;;;;;;;;;;;;19.76;66.02;100939.75;5114698;28;20023;-35
2021/07/28 08:53:43;;;;;;;2.92;2.25;;;;;;;19.58;66.25;100926.75;5113863;28;19904;-35
2021/07/28 08:56:08;;;;;;;;;;;;;;;19.77;67.57;100928.50;5115178;28;20055;-35
2021/07/28 08:58:34;;;;;;;4.93;2.63;;;;;;;19.69;67.92;100907.19;5114330;28;19904;-35
2021/07/28 09:00:59;;;;;;;3.83;2.40;;;;;;;19.87;66.13;100929.50;5114632;28;20023;-35
2021/07/28 09:03:25;;;;;;;;;;;;;;;19.98;67.70;100926.34;5114447;28;20035;-36
2021/07/28 09:05:52;;;;;;;5.65;2.67;;;;;;;19.78;66.07;100926.56;5114867;28;19978;-36
2021/07/28 09:08:22;;;;;;;5.32;3.05;;;;;;;19.67;66.75;100928.63;5114454;28;20128;-35
2021/07/28 09:10:49;;;;;;;6.18;2.50;;;;;;;19.67;66.84;100928.63;5114167;28;20028;-35
2021/07/28 09:13:15;;;;;;;4.85;2.53;;;;;;;19.81;66.48;100928.72;5114597;28;20157;-35
2021/07/28 09:15:40;;;;;;;;;;;;;;;20.05;67.75;100928.72;5114823;28;20055;-35
2021/07/28 09:18:26;;;;;;;5.32;2.20;;;;;;;20.14;66.59;100929.72;5113794;28;19904;-35
2021/07/28 09:20:51;;;;;;;6.10;2.30;;;;;;;20.11;64.87;100933.06;5114249;28;20019;-35
2021/07/28 09:23:17;;;;;;;;;;;;;;;20.23;65.23;100935.41;5114176;28;20092;-36
2021/07/28 09:25:42;;;;;;;6.72;2.20;;;;;;;20.46;65.00;100934.56;5114050;28;20445;-35
2021/07/28 09:28:17;;;;;;;;;;;;;;;20.77;64.91;100923.97;5114231;28;20525;-36
2021/07/28 09:30:42;;;;;;;5.70;2.20;;;;;;;21.07;63.40;100919.94;5113445;28;19937;-36
2021/07/28 09:33:11;;;;;;;;;;;;;;;21.30;62.95;100920.97;5114203;28;20027;-36
2021/07/28 09:35:49;;;;;;;6.10;2.08;;;;;;;21.30;62.65;100918.22;5113634;28;19908;-36
2021/07/28 09:38:34;;;;;;;3.22;1.80;;;;;;;21.56;62.10;100915.81;5113328;28;20320;-36
2021/07/28 09:41:14;;;;;;;4.93;2.13;;;;;;;21.72;61.10;100918.31;5114038;28;20027;-36
2021/07/28 09:43:46;;;;;;;3.15;1.95;;;;;;;21.46;59.69;100915.19;5113499;28;20482;-35
2021/07/28 09:46:31;;;;;;;7.18;2.15;;;;;;;21.36;60.54;100924.44;5113161;28;20077;-36
2021/07/28 09:49:00;;;;;;;3.50;1.95;;;;;;;21.09;61.09;100923.22;5115765;28;20112;-36
2021/07/28 09:51:38;;;;;;;4.13;2.30;;;;;;;21.14;61.72;100927.81;5118168;28;20072;-35
2021/07/28 09:54:06;;;;;;;7.57;2.25;;;;;;;21.20;61.73;100892.81;5117729;28;20424;-35
2021/07/28 09:56:44;;;;;;;6.32;2.20;;;;;;;21.45;59.47;100916.31;5118501;28;20059;-36
2021/07/28 09:59:09;;;;;;;5.50;2.38;;;;;;;21.32;59.08;100920.66;5118047;27;20106;-36
2021/07/28 10:01:35;;;;;;;6.95;2.10;;;;;;;21.12;60.41;100926.47;5118272;28;20078;-35
2021/07/28 10:04:03;;;;;;;5.00;2.15;;;;;;;20.97;62.24;100928.34;5117628;28;20036;-36
2021/07/28 10:06:33;;;;;;;5.30;2.25;;;;;;;21.09;62.71;100922.41;5117561;28;20030;-35
2021/07/28 10:09:00;;;;;;;3.28;1.70;;;;;;;21.31;60.01;100930.84;5118060;28;20016;-36
2021/07/28 10:11:26;;;;;;;4.55;1.80;;;;;;;21.31;60.87;100925.34;5117960;28;20351;-36
2021/07/28 10:13:52;;;;;;;4.32;1.90;;;;;;;21.51;59.24;100918.66;5117892;28;20032;-36
2021/07/28 10:16:18;;;;;;;2.58;1.65;;;;;;;21.57;58.60;100927.69;5117736;28;20019;-36
2021/07/28 10:18:49;;;;;;;3.33;1.83;;;;;;;21.39;59.17;100920.28;5117070;27;20019;-35
2021/07/28 10:21:14;;;;;;;5.78;2.15;;;;;;;21.09;59.41;100914.16;5118094;28;20032;-36
2021/07/28 10:23:43;;;;;;;6.43;1.65;;;;;;;20.88;60.77;100910.88;5117474;28;20022;-35
2021/07/28 10:26:12;;;;;;;5.40;2.15;;;;;;;20.81;60.54;100927.75;5117167;28;20031;-35
2021/07/28 10:28:37;;;;;;;6.40;2.00;;;;;;;20.86;60.56;100928.81;5116706;28;20455;-36
2021/07/28 10:31:13;;;;;;;;;;;;;;;21.13;61.31;100917.94;5117874;28;20105;-36
2021/07/28 10:33:55;;;;;;;6.95;2.10;;;;;;;21.42;61.54;100919.66;5117081;28;19910;-36
2021/07/28 10:36:48;;;;;;;5.47;1.73;;;;;;;21.88;60.45;100911.41;5117057;28;20035;-36
2021/07/28 10:39:40;;;;;;;3.58;1.63;;;;;;;21.80;54.88;100923.91;5117644;28;20402;-36
2021/07/28 10:42:16;;;;;;;3.35;1.73;;;;;;;21.52;55.76;100919.47;5117011;28;20024;-36
2021/07/28 10:44:57;;;;;;;;;;;;;;;21.60;57.06;100916.03;5117806;28;20015;-35
2021/07/28 10:47:37;;;;;;;4.97;1.90;;;;;;;21.55;56.50;100913.38;5117274;28;19963;-35
2021/07/28 10:50:07;;;;;;;8.95;2.28;;;;;;;21.38;56.23;100921.41;5116584;28;20360;-35
2021/07/28 10:52:47;;;;;;;5.10;1.70;;;;;;;21.33;57.10;100914.06;5116918;28;20024;-35
2021/07/28 10:55:15;;;;;;;3.78;1.58;;;;;;;21.45;56.88;100914.38;5116567;28;20045;-36
2021/07/28 10:57:46;;;;;;;6.15;2.17;;;;;;;21.64;55.01;100917.06;5116177;28;20456;-36
2021/07/28 11:00:32;;;;;;;3.60;1.63;;;;;;;21.80;54.71;100909.34;5116946;28;20027;-36
2021/07/28 11:02:57;;;;;;;3.15;1.95;;;;;;;21.62;56.64;100896.47;5116636;28;20126;-36
2021/07/28 11:05:25;;;;;;;3.85;1.55;;;;;;;21.53;55.61;100918.38;5116327;28;20092;-36
2021/07/28 11:08:02;;;;;;;5.50;1.90;;;;;;;21.65;55.79;100907.69;5116522;28;20028;-36
2021/07/28 11:10:29;;;;;;;6.32;2.25;;;;;;;21.98;55.36;100900.19;5116626;28;20023;-36
2021/07/28 11:12:55;;;;;;;5.40;2.03;;;;;;;22.14;54.74;100908.97;5116767;28;20042;-36
2021/07/28 11:15:21;;;;;;;3.40;1.65;;;;;;;22.36;55.29;100906.31;5116520;28;20035;-36
2021/07/28 11:17:52;;;;;;;3.85;1.60;;;;;;;22.60;54.37;100906.06;5116207;28;20027;-36
2021/07/28 11:20:30;;;;;;;6.03;1.88;;;;;;;22.69;53.74;100902.53;5116571;28;20077;-36
2021/07/28 11:23:20;;;;;;;3.17;1.45;;;;;;;22.90;53.71;100913.97;5115920;28;20015;-35
2021/07/28 11:25:46;;;;;;;4.00;1.70;;;;;;;22.70;52.53;100906.94;5116592;28;20015;-36
2021/07/28 11:28:11;;;;;;;3.80;1.70;;;;;;;22.52;53.78;100900.44;5115639;28;20486;-36
2021/07/28 11:30:37;;;;;;;6.95;1.95;;;;;;;22.54;53.66;100920.22;5116189;28;20030;-36
2021/07/28 11:33:15;;;;;;;4.18;1.90;;;;;;;22.48;55.17;100921.47;5115500;28;20024;-36
2021/07/28 11:35:46;;;;;;;3.92;1.90;;;;;;;22.37;54.87;100918.13;5116342;28;20027;-36
2021/07/28 11:38:15;;;;;;;4.22;1.50;;;;;;;22.23;54.20;100922.84;5116080;28;20054;-36
2021/07/28 11:40:44;;;;;;;4.88;1.98;;;;;;;22.24;53.91;100929.97;5116110;28;20140;-36